< Typhoon 201416 2014 Season Typhoon 201418 >
Typhoon 201417 (KAMMURI)
General InformationTrack Information on Google MapsDetailed Wind InformationForecast History on Google MapsAccess Analytics MapList of All Images || NewsDisaster Info.WeblogTrackbackTyphoon FrontTwiphoonTyphoon Now!Typhoon ImaginationDisaster Info. XMLResourceGoogle EarthGE AnimationAtom FeedGeoJSON
Detalied Best Track (Time Zone = UTC)
Year Month Day Hour Lat. Long. Pressure (hPa) Wind (kt) Class Image Chart
2014 9 23 12 17.9 149.6 1004 0 2 Image Chart
2014 9 23 18 18.6 149.9 1002 0 2 Image Chart
2014 9 24 00 19.3 150.0 1002 0 2 Image Chart
2014 9 24 06 19.8 149.9 1000 0 2 Image Chart
2014 9 24 12 20.0 149.6 998 35 3 Image Chart
2014 9 24 18 20.1 149.2 994 40 3 Image Chart
2014 9 25 00 20.2 148.4 994 40 3 Image Chart
2014 9 25 06 20.2 147.5 992 40 3 Image Chart
2014 9 25 12 20.3 147.3 992 40 3 Image Chart
2014 9 25 18 20.8 146.8 992 40 3 Image Chart
2014 9 26 00 21.6 146.0 992 40 3 Image Chart
2014 9 26 06 22.3 145.3 990 45 3 Image Chart
2014 9 26 12 23.2 145.1 985 50 4 Image Chart
2014 9 26 18 23.8 144.5 985 50 4 Image Chart
2014 9 27 00 25.0 144.2 985 50 4 Image Chart
2014 9 27 06 26.3 143.7 985 50 4 Image Chart
2014 9 27 12 27.4 143.5 985 45 3 Image Chart
2014 9 27 18 28.0 143.5 985 45 3 Image Chart
2014 9 28 00 29.0 143.3 985 45 3 Image Chart
2014 9 28 06 30.6 143.9 985 45 3 Image Chart
2014 9 28 12 31.6 144.7 985 45 3 Image Chart
2014 9 28 18 32.7 145.6 985 45 3 Image Chart
2014 9 29 00 33.4 146.7 985 45 3 Image Chart
2014 9 29 06 34.4 148.5 985 45 3 Image Chart
2014 9 29 12 35.4 150.9 985 45 3 Image Chart
2014 9 29 18 36.6 153.4 985 45 3 Image Chart
2014 9 30 00 37.8 156.8 985 45 3 Image Chart
2014 9 30 06 39.2 160.0 986 0 6 Image Chart
2014 9 30 12 40.6 162.3 986 0 6 Image Chart
2014 9 30 18 41.0 165.5 988 0 6 Image Chart
2014 10 1 00 40.8 169.6 988 0 6 Image Chart
2014 10 1 06 39.9 173.6 992 0 6 Image Chart
2014 10 1 12 39.1 176.7 996 0 6 Image Chart
2014 10 1 18 37.8 180.1 996 0 6 Image Chart
Japan Meteorological Agency Best Track Data | Correction Date : 2014-10-27
< Typhoon 201416 2014 Season Typhoon 201418 >

Help